sensor_id;sensor_type;location;lat;lon;timestamp;P1;durP1;ratioP1;P2;durP2;ratioP2
80536;SDS011;69867;47.074;15.404;2023-08-01T00:00:52;4.60;;;3.08;;
80536;SDS011;69867;47.074;15.404;2023-08-01T00:03:17;7.07;;;3.50;;
80536;SDS011;69867;47.074;15.404;2023-08-01T00:05:43;6.40;;;3.25;;
80536;SDS011;69867;47.074;15.404;2023-08-01T00:08:08;5.20;;;3.20;;
80536;SDS011;69867;47.074;15.404;2023-08-01T00:10:34;5.93;;;3.15;;
80536;SDS011;69867;47.074;15.404;2023-08-01T00:12:59;6.18;;;3.42;;
80536;SDS011;69867;47.074;15.404;2023-08-01T00:15:24;5.05;;;3.50;;
80536;SDS011;69867;47.074;15.404;2023-08-01T00:17:49;5.75;;;3.15;;
80536;SDS011;69867;47.074;15.404;2023-08-01T00:20:15;6.03;;;3.63;;
80536;SDS011;69867;47.074;15.404;2023-08-01T00:22:40;6.07;;;3.42;;
80536;SDS011;69867;47.074;15.404;2023-08-01T00:25:06;6.78;;;2.90;;
80536;SDS011;69867;47.074;15.404;2023-08-01T00:27:31;5.15;;;3.40;;
80536;SDS011;69867;47.074;15.404;2023-08-01T00:29:56;6.00;;;3.45;;
80536;SDS011;69867;47.074;15.404;2023-08-01T00:32:22;6.13;;;3.50;;
80536;SDS011;69867;47.074;15.404;2023-08-01T00:34:49;5.88;;;3.63;;
80536;SDS011;69867;47.074;15.404;2023-08-01T00:37:15;5.97;;;3.50;;
80536;SDS011;69867;47.074;15.404;2023-08-01T00:39:40;5.68;;;3.33;;
80536;SDS011;69867;47.074;15.404;2023-08-01T00:42:06;5.25;;;3.15;;
80536;SDS011;69867;47.074;15.404;2023-08-01T00:44:31;7.38;;;3.75;;
80536;SDS011;69867;47.074;15.404;2023-08-01T00:46:56;5.25;;;3.63;;
80536;SDS011;69867;47.074;15.404;2023-08-01T00:49:22;5.38;;;3.20;;
80536;SDS011;69867;47.074;15.404;2023-08-01T00:51:47;4.78;;;3.30;;
80536;SDS011;69867;47.074;15.404;2023-08-01T00:54:13;6.57;;;3.75;;
80536;SDS011;69867;47.074;15.404;2023-08-01T00:56:39;5.10;;;3.20;;
80536;SDS011;69867;47.074;15.404;2023-08-01T00:59:05;5.47;;;3.20;;
80536;SDS011;69867;47.074;15.404;2023-08-01T01:01:30;6.93;;;2.97;;
80536;SDS011;69867;47.074;15.404;2023-08-01T01:03:55;5.68;;;3.80;;
80536;SDS011;69867;47.074;15.404;2023-08-01T01:08:49;5.38;;;3.15;;
80536;SDS011;69867;47.074;15.404;2023-08-01T01:11:14;6.03;;;3.00;;
80536;SDS011;69867;47.074;15.404;2023-08-01T01:13:40;5.35;;;2.95;;
80536;SDS011;69867;47.074;15.404;2023-08-01T01:16:05;6.07;;;3.10;;
80536;SDS011;69867;47.074;15.404;2023-08-01T01:18:31;6.03;;;3.20;;
80536;SDS011;69867;47.074;15.404;2023-08-01T01:20:56;7.18;;;3.08;;
80536;SDS011;69867;47.074;15.404;2023-08-01T01:23:21;4.95;;;2.97;;
80536;SDS011;69867;47.074;15.404;2023-08-01T01:25:47;5.60;;;3.45;;
80536;SDS011;69867;47.074;15.404;2023-08-01T01:28:15;6.18;;;3.30;;
80536;SDS011;69867;47.074;15.404;2023-08-01T01:30:41;6.13;;;3.20;;
80536;SDS011;69867;47.074;15.404;2023-08-01T01:33:07;5.70;;;3.22;;
80536;SDS011;69867;47.074;15.404;2023-08-01T01:35:34;8.00;;;3.00;;
80536;SDS011;69867;47.074;15.404;2023-08-01T01:37:59;5.47;;;3.30;;
80536;SDS011;69867;47.074;15.404;2023-08-01T01:40:25;5.82;;;3.13;;
80536;SDS011;69867;47.074;15.404;2023-08-01T01:42:50;5.45;;;3.17;;
80536;SDS011;69867;47.074;15.404;2023-08-01T01:45:15;4.25;;;2.80;;
80536;SDS011;69867;47.074;15.404;2023-08-01T01:47:41;4.88;;;3.13;;
80536;SDS011;69867;47.074;15.404;2023-08-01T01:50:06;4.45;;;2.88;;
80536;SDS011;69867;47.074;15.404;2023-08-01T01:52:32;6.18;;;2.92;;
80536;SDS011;69867;47.074;15.404;2023-08-01T01:54:57;8.05;;;2.88;;
80536;SDS011;69867;47.074;15.404;2023-08-01T01:57:22;5.65;;;2.80;;
80536;SDS011;69867;47.074;15.404;2023-08-01T01:59:48;5.45;;;3.08;;
80536;SDS011;69867;47.074;15.404;2023-08-01T02:02:13;5.88;;;3.10;;
80536;SDS011;69867;47.074;15.404;2023-08-01T02:04:38;5.47;;;3.08;;
80536;SDS011;69867;47.074;15.404;2023-08-01T02:07:04;6.95;;;3.20;;
80536;SDS011;69867;47.074;15.404;2023-08-01T02:09:29;5.40;;;3.10;;
80536;SDS011;69867;47.074;15.404;2023-08-01T02:11:54;6.00;;;2.95;;
80536;SDS011;69867;47.074;15.404;2023-08-01T02:14:20;7.00;;;3.80;;
80536;SDS011;69867;47.074;15.404;2023-08-01T02:16:45;5.53;;;3.42;;
80536;SDS011;69867;47.074;15.404;2023-08-01T02:19:10;5.63;;;3.25;;
80536;SDS011;69867;47.074;15.404;2023-08-01T02:21:36;6.95;;;3.20;;
80536;SDS011;69867;47.074;15.404;2023-08-01T02:24:01;5.95;;;3.10;;
80536;SDS011;69867;47.074;15.404;2023-08-01T02:26:26;7.13;;;3.28;;
80536;SDS011;69867;47.074;15.404;2023-08-01T02:28:52;8.65;;;3.85;;
80536;SDS011;69867;47.074;15.404;2023-08-01T02:31:17;5.32;;;3.17;;
80536;SDS011;69867;47.074;15.404;2023-08-01T02:33:42;6.50;;;3.15;;
80536;SDS011;69867;47.074;15.404;2023-08-01T02:36:08;4.57;;;3.00;;
80536;SDS011;69867;47.074;15.404;2023-08-01T02:38:33;7.28;;;3.78;;
80536;SDS011;69867;47.074;15.404;2023-08-01T02:40:58;5.15;;;3.42;;
80536;SDS011;69867;47.074;15.404;2023-08-01T02:43:24;7.85;;;3.25;;
80536;SDS011;69867;47.074;15.404;2023-08-01T02:45:49;4.72;;;3.30;;
80536;SDS011;69867;47.074;15.404;2023-08-01T02:48:15;5.75;;;3.25;;
80536;SDS011;69867;47.074;15.404;2023-08-01T02:50:40;5.50;;;3.40;;
80536;SDS011;69867;47.074;15.404;2023-08-01T02:53:06;5.30;;;3.00;;
80536;SDS011;69867;47.074;15.404;2023-08-01T02:55:31;5.10;;;2.90;;
80536;SDS011;69867;47.074;15.404;2023-08-01T02:57:56;6.25;;;3.05;;
80536;SDS011;69867;47.074;15.404;2023-08-01T03:00:22;4.90;;;3.10;;
80536;SDS011;69867;47.074;15.404;2023-08-01T03:02:47;6.28;;;3.38;;
80536;SDS011;69867;47.074;15.404;2023-08-01T03:05:12;5.35;;;3.22;;
80536;SDS011;69867;47.074;15.404;2023-08-01T03:07:38;7.05;;;2.85;;
80536;SDS011;69867;47.074;15.404;2023-08-01T03:10:03;9.15;;;3.35;;
80536;SDS011;69867;47.074;15.404;2023-08-01T03:12:29;8.32;;;3.30;;
80536;SDS011;69867;47.074;15.404;2023-08-01T03:14:54;6.45;;;3.22;;
80536;SDS011;69867;47.074;15.404;2023-08-01T03:17:19;5.50;;;3.33;;
80536;SDS011;69867;47.074;15.404;2023-08-01T03:19:45;5.38;;;3.30;;
80536;SDS011;69867;47.074;15.404;2023-08-01T03:22:10;7.75;;;3.33;;
80536;SDS011;69867;47.074;15.404;2023-08-01T03:24:36;7.00;;;3.65;;
80536;SDS011;69867;47.074;15.404;2023-08-01T03:27:01;6.25;;;3.90;;
80536;SDS011;69867;47.074;15.404;2023-08-01T03:29:27;5.60;;;3.35;;
80536;SDS011;69867;47.074;15.404;2023-08-01T03:31:52;6.93;;;3.58;;
80536;SDS011;69867;47.074;15.404;2023-08-01T03:34:18;7.85;;;3.72;;
80536;SDS011;69867;47.074;15.404;2023-08-01T03:36:43;5.43;;;3.35;;
80536;SDS011;69867;47.074;15.404;2023-08-01T03:39:08;6.82;;;3.45;;
80536;SDS011;69867;47.074;15.404;2023-08-01T03:41:34;6.40;;;3.38;;
80536;SDS011;69867;47.074;15.404;2023-08-01T03:43:59;5.85;;;3.28;;
80536;SDS011;69867;47.074;15.404;2023-08-01T03:46:24;5.78;;;3.20;;
80536;SDS011;69867;47.074;15.404;2023-08-01T03:48:50;5.57;;;3.40;;
80536;SDS011;69867;47.074;15.404;2023-08-01T03:51:15;5.25;;;3.13;;
80536;SDS011;69867;47.074;15.404;2023-08-01T03:53:40;6.10;;;3.30;;
80536;SDS011;69867;47.074;15.404;2023-08-01T03:56:05;5.47;;;3.25;;
80536;SDS011;69867;47.074;15.404;2023-08-01T03:58:31;5.40;;;3.17;;
80536;SDS011;69867;47.074;15.404;2023-08-01T04:00:56;7.05;;;2.92;;
80536;SDS011;69867;47.074;15.404;2023-08-01T04:03:21;6.18;;;3.25;;
80536;SDS011;69867;47.074;15.404;2023-08-01T04:05:47;5.70;;;3.60;;
80536;SDS011;69867;47.074;15.404;2023-08-01T04:08:12;7.60;;;3.90;;
80536;SDS011;69867;47.074;15.404;2023-08-01T04:10:37;6.68;;;3.50;;
80536;SDS011;69867;47.074;15.404;2023-08-01T04:13:03;5.95;;;3.10;;
80536;SDS011;69867;47.074;15.404;2023-08-01T04:15:28;5.03;;;2.90;;
80536;SDS011;69867;47.074;15.404;2023-08-01T04:17:53;6.65;;;3.10;;
80536;SDS011;69867;47.074;15.404;2023-08-01T04:20:19;5.22;;;2.83;;
80536;SDS011;69867;47.074;15.404;2023-08-01T04:22:44;6.10;;;3.53;;
80536;SDS011;69867;47.074;15.404;2023-08-01T04:25:09;7.47;;;3.35;;
80536;SDS011;69867;47.074;15.404;2023-08-01T04:27:35;6.28;;;3.30;;
80536;SDS011;69867;47.074;15.404;2023-08-01T04:30:01;5.97;;;3.08;;
80536;SDS011;69867;47.074;15.404;2023-08-01T04:32:27;6.20;;;3.40;;
80536;SDS011;69867;47.074;15.404;2023-08-01T04:34:52;6.03;;;3.38;;
80536;SDS011;69867;47.074;15.404;2023-08-01T04:37:17;5.63;;;3.35;;
80536;SDS011;69867;47.074;15.404;2023-08-01T04:39:43;6.30;;;3.60;;
80536;SDS011;69867;47.074;15.404;2023-08-01T04:42:08;6.88;;;3.72;;
80536;SDS011;69867;47.074;15.404;2023-08-01T04:44:33;5.75;;;3.00;;
80536;SDS011;69867;47.074;15.404;2023-08-01T04:46:59;6.68;;;3.17;;
80536;SDS011;69867;47.074;15.404;2023-08-01T04:49:24;5.47;;;3.33;;
80536;SDS011;69867;47.074;15.404;2023-08-01T04:51:50;5.60;;;3.33;;
80536;SDS011;69867;47.074;15.404;2023-08-01T04:54:16;5.53;;;2.72;;
80536;SDS011;69867;47.074;15.404;2023-08-01T04:56:41;7.82;;;3.40;;
80536;SDS011;69867;47.074;15.404;2023-08-01T04:59:06;7.32;;;3.35;;
80536;SDS011;69867;47.074;15.404;2023-08-01T05:01:32;6.32;;;2.80;;
80536;SDS011;69867;47.074;15.404;2023-08-01T05:03:57;4.63;;;3.17;;
80536;SDS011;69867;47.074;15.404;2023-08-01T05:06:22;7.40;;;2.95;;
80536;SDS011;69867;47.074;15.404;2023-08-01T05:08:48;7.45;;;3.15;;
80536;SDS011;69867;47.074;15.404;2023-08-01T05:11:13;5.18;;;3.08;;
80536;SDS011;69867;47.074;15.404;2023-08-01T05:13:38;5.68;;;3.13;;
80536;SDS011;69867;47.074;15.404;2023-08-01T05:16:04;6.53;;;2.80;;
80536;SDS011;69867;47.074;15.404;2023-08-01T05:18:29;6.50;;;3.10;;
80536;SDS011;69867;47.074;15.404;2023-08-01T05:20:54;6.10;;;3.10;;
80536;SDS011;69867;47.074;15.404;2023-08-01T05:23:20;5.78;;;3.20;;
80536;SDS011;69867;47.074;15.404;2023-08-01T05:25:45;6.32;;;3.00;;
80536;SDS011;69867;47.074;15.404;2023-08-01T05:28:10;5.38;;;3.13;;
80536;SDS011;69867;47.074;15.404;2023-08-01T05:30:36;5.82;;;3.10;;
80536;SDS011;69867;47.074;15.404;2023-08-01T05:33:01;10.60;;;3.58;;
80536;SDS011;69867;47.074;15.404;2023-08-01T05:35:26;6.55;;;3.17;;
80536;SDS011;69867;47.074;15.404;2023-08-01T05:37:52;5.85;;;3.25;;
80536;SDS011;69867;47.074;15.404;2023-08-01T05:40:17;5.50;;;3.10;;
80536;SDS011;69867;47.074;15.404;2023-08-01T05:42:42;5.75;;;3.42;;
80536;SDS011;69867;47.074;15.404;2023-08-01T05:45:08;7.63;;;3.67;;
80536;SDS011;69867;47.074;15.404;2023-08-01T05:47:34;5.95;;;3.05;;
80536;SDS011;69867;47.074;15.404;2023-08-01T05:49:59;6.07;;;3.17;;
80536;SDS011;69867;47.074;15.404;2023-08-01T05:52:24;6.30;;;3.13;;
80536;SDS011;69867;47.074;15.404;2023-08-01T05:54:50;4.78;;;3.33;;
80536;SDS011;69867;47.074;15.404;2023-08-01T05:57:15;6.85;;;3.80;;
80536;SDS011;69867;47.074;15.404;2023-08-01T05:59:40;5.97;;;3.45;;
80536;SDS011;69867;47.074;15.404;2023-08-01T06:02:06;6.95;;;3.60;;
80536;SDS011;69867;47.074;15.404;2023-08-01T06:04:31;6.82;;;3.38;;
80536;SDS011;69867;47.074;15.404;2023-08-01T06:06:57;9.02;;;4.57;;
80536;SDS011;69867;47.074;15.404;2023-08-01T06:09:22;10.45;;;3.53;;
80536;SDS011;69867;47.074;15.404;2023-08-01T06:11:47;7.13;;;3.90;;
80536;SDS011;69867;47.074;15.404;2023-08-01T06:14:13;6.32;;;3.25;;
80536;SDS011;69867;47.074;15.404;2023-08-01T06:16:38;8.80;;;3.50;;
80536;SDS011;69867;47.074;15.404;2023-08-01T06:19:03;9.63;;;3.47;;
80536;SDS011;69867;47.074;15.404;2023-08-01T06:21:29;6.00;;;3.90;;
80536;SDS011;69867;47.074;15.404;2023-08-01T06:23:54;7.20;;;3.80;;
80536;SDS011;69867;47.074;15.404;2023-08-01T06:26:19;5.20;;;3.35;;
80536;SDS011;69867;47.074;15.404;2023-08-01T06:28:45;9.48;;;3.38;;
80536;SDS011;69867;47.074;15.404;2023-08-01T06:31:10;6.30;;;3.25;;
80536;SDS011;69867;47.074;15.404;2023-08-01T06:33:35;6.32;;;3.83;;
80536;SDS011;69867;47.074;15.404;2023-08-01T06:36:01;7.07;;;3.88;;
80536;SDS011;69867;47.074;15.404;2023-08-01T06:38:26;6.30;;;3.60;;
80536;SDS011;69867;47.074;15.404;2023-08-01T06:40:51;7.60;;;3.53;;
80536;SDS011;69867;47.074;15.404;2023-08-01T06:43:17;5.70;;;3.30;;
80536;SDS011;69867;47.074;15.404;2023-08-01T06:45:42;5.15;;;3.50;;
80536;SDS011;69867;47.074;15.404;2023-08-01T06:48:07;7.15;;;3.35;;
80536;SDS011;69867;47.074;15.404;2023-08-01T06:50:33;7.20;;;3.47;;
80536;SDS011;69867;47.074;15.404;2023-08-01T06:52:58;6.38;;;3.25;;
80536;SDS011;69867;47.074;15.404;2023-08-01T06:55:23;6.72;;;3.55;;
80536;SDS011;69867;47.074;15.404;2023-08-01T06:57:49;6.32;;;3.25;;
80536;SDS011;69867;47.074;15.404;2023-08-01T07:00:14;5.55;;;3.47;;
80536;SDS011;69867;47.074;15.404;2023-08-01T07:02:39;5.80;;;3.28;;
80536;SDS011;69867;47.074;15.404;2023-08-01T07:05:05;6.57;;;3.20;;
80536;SDS011;69867;47.074;15.404;2023-08-01T07:07:30;5.85;;;3.15;;
80536;SDS011;69867;47.074;15.404;2023-08-01T07:09:56;5.53;;;3.72;;
80536;SDS011;69867;47.074;15.404;2023-08-01T07:12:21;6.28;;;3.53;;
80536;SDS011;69867;47.074;15.404;2023-08-01T07:14:46;4.38;;;3.13;;
80536;SDS011;69867;47.074;15.404;2023-08-01T07:17:12;5.18;;;3.15;;
80536;SDS011;69867;47.074;15.404;2023-08-01T07:19:37;5.95;;;3.28;;
80536;SDS011;69867;47.074;15.404;2023-08-01T07:22:02;5.60;;;3.28;;
80536;SDS011;69867;47.074;15.404;2023-08-01T07:24:28;6.70;;;3.67;;
80536;SDS011;69867;47.074;15.404;2023-08-01T07:26:53;5.45;;;3.17;;
80536;SDS011;69867;47.074;15.404;2023-08-01T07:29:18;5.65;;;2.88;;
80536;SDS011;69867;47.074;15.404;2023-08-01T07:31:44;6.78;;;3.20;;
80536;SDS011;69867;47.074;15.404;2023-08-01T07:34:09;5.40;;;3.38;;
80536;SDS011;69867;47.074;15.404;2023-08-01T07:36:34;6.45;;;3.58;;
80536;SDS011;69867;47.074;15.404;2023-08-01T07:39:00;6.28;;;3.00;;
80536;SDS011;69867;47.074;15.404;2023-08-01T07:41:25;5.63;;;3.05;;
80536;SDS011;69867;47.074;15.404;2023-08-01T07:43:51;4.53;;;3.00;;
80536;SDS011;69867;47.074;15.404;2023-08-01T07:46:16;5.80;;;3.20;;
80536;SDS011;69867;47.074;15.404;2023-08-01T07:48:41;5.85;;;3.78;;
80536;SDS011;69867;47.074;15.404;2023-08-01T07:51:06;6.43;;;3.20;;
80536;SDS011;69867;47.074;15.404;2023-08-01T07:53:32;7.07;;;3.10;;
80536;SDS011;69867;47.074;15.404;2023-08-01T07:55:57;5.20;;;3.17;;
80536;SDS011;69867;47.074;15.404;2023-08-01T07:58:23;7.07;;;3.10;;
80536;SDS011;69867;47.074;15.404;2023-08-01T08:00:48;6.82;;;3.22;;
80536;SDS011;69867;47.074;15.404;2023-08-01T08:03:13;4.97;;;3.10;;
80536;SDS011;69867;47.074;15.404;2023-08-01T08:05:39;5.07;;;3.05;;
80536;SDS011;69867;47.074;15.404;2023-08-01T08:08:04;6.10;;;3.20;;
80536;SDS011;69867;47.074;15.404;2023-08-01T08:10:30;6.97;;;3.17;;
80536;SDS011;69867;47.074;15.404;2023-08-01T08:12:55;5.15;;;2.95;;
80536;SDS011;69867;47.074;15.404;2023-08-01T08:15:21;4.78;;;2.92;;
80536;SDS011;69867;47.074;15.404;2023-08-01T08:17:47;6.38;;;3.17;;
80536;SDS011;69867;47.074;15.404;2023-08-01T08:20:12;6.38;;;3.08;;
80536;SDS011;69867;47.074;15.404;2023-08-01T08:22:37;4.68;;;3.20;;
80536;SDS011;69867;47.074;15.404;2023-08-01T08:25:03;5.55;;;2.80;;
80536;SDS011;69867;47.074;15.404;2023-08-01T08:27:28;5.05;;;2.55;;
80536;SDS011;69867;47.074;15.404;2023-08-01T08:29:54;7.72;;;3.08;;
80536;SDS011;69867;47.074;15.404;2023-08-01T08:32:19;4.75;;;3.10;;
80536;SDS011;69867;47.074;15.404;2023-08-01T08:34:44;6.95;;;3.35;;
80536;SDS011;69867;47.074;15.404;2023-08-01T08:37:10;4.90;;;2.92;;
80536;SDS011;69867;47.074;15.404;2023-08-01T08:39:35;5.38;;;3.58;;
80536;SDS011;69867;47.074;15.404;2023-08-01T08:42:00;5.30;;;3.10;;
80536;SDS011;69867;47.074;15.404;2023-08-01T08:44:25;4.35;;;2.60;;
80536;SDS011;69867;47.074;15.404;2023-08-01T08:46:51;7.15;;;3.75;;
80536;SDS011;69867;47.074;15.404;2023-08-01T08:49:20;6.78;;;3.75;;
80536;SDS011;69867;47.074;15.404;2023-08-01T08:51:46;6.35;;;3.28;;
80536;SDS011;69867;47.074;15.404;2023-08-01T08:54:11;5.65;;;2.92;;
80536;SDS011;69867;47.074;15.404;2023-08-01T08:56:38;4.80;;;3.10;;
80536;SDS011;69867;47.074;15.404;2023-08-01T08:59:04;4.30;;;2.75;;
80536;SDS011;69867;47.074;15.404;2023-08-01T09:01:31;5.45;;;2.95;;
80536;SDS011;69867;47.074;15.404;2023-08-01T09:03:56;5.78;;;3.42;;
80536;SDS011;69867;47.074;15.404;2023-08-01T09:06:26;5.88;;;3.50;;
80536;SDS011;69867;47.074;15.404;2023-08-01T09:09:10;5.03;;;3.15;;
80536;SDS011;69867;47.074;15.404;2023-08-01T09:11:44;4.55;;;2.60;;
80536;SDS011;69867;47.074;15.404;2023-08-01T09:14:14;5.10;;;2.75;;
80536;SDS011;69867;47.074;15.404;2023-08-01T09:16:40;5.72;;;3.15;;
80536;SDS011;69867;47.074;15.404;2023-08-01T09:19:06;4.82;;;3.05;;
80536;SDS011;69867;47.074;15.404;2023-08-01T09:21:32;4.22;;;2.83;;
80536;SDS011;69867;47.074;15.404;2023-08-01T09:23:59;9.00;;;3.50;;
80536;SDS011;69867;47.074;15.404;2023-08-01T09:26:35;5.72;;;3.20;;
80536;SDS011;69867;47.074;15.404;2023-08-01T09:29:00;6.30;;;3.17;;
80536;SDS011;69867;47.074;15.404;2023-08-01T09:31:26;6.15;;;2.67;;
80536;SDS011;69867;47.074;15.404;2023-08-01T09:33:53;6.65;;;3.40;;
80536;SDS011;69867;47.074;15.404;2023-08-01T09:36:22;7.43;;;3.30;;
80536;SDS011;69867;47.074;15.404;2023-08-01T09:38:48;5.93;;;3.10;;
80536;SDS011;69867;47.074;15.404;2023-08-01T09:41:18;5.57;;;3.25;;
80536;SDS011;69867;47.074;15.404;2023-08-01T09:43:45;4.95;;;3.03;;
80536;SDS011;69867;47.074;15.404;2023-08-01T09:46:11;5.85;;;3.20;;
80536;SDS011;69867;47.074;15.404;2023-08-01T09:48:37;6.20;;;3.28;;
80536;SDS011;69867;47.074;15.404;2023-08-01T09:51:08;5.43;;;3.47;;
80536;SDS011;69867;47.074;15.404;2023-08-01T09:53:35;5.88;;;3.22;;
80536;SDS011;69867;47.074;15.404;2023-08-01T09:56:11;5.32;;;3.10;;
80536;SDS011;69867;47.074;15.404;2023-08-01T09:58:37;5.97;;;3.10;;
80536;SDS011;69867;47.074;15.404;2023-08-01T10:01:03;5.30;;;3.53;;
80536;SDS011;69867;47.074;15.404;2023-08-01T10:03:29;6.75;;;3.72;;
80536;SDS011;69867;47.074;15.404;2023-08-01T10:05:54;9.85;;;4.90;;
80536;SDS011;69867;47.074;15.404;2023-08-01T10:08:21;6.20;;;3.30;;
80536;SDS011;69867;47.074;15.404;2023-08-01T10:10:47;5.72;;;3.35;;
80536;SDS011;69867;47.074;15.404;2023-08-01T10:13:13;5.68;;;3.75;;
80536;SDS011;69867;47.074;15.404;2023-08-01T10:15:39;7.40;;;3.20;;
80536;SDS011;69867;47.074;15.404;2023-08-01T10:18:04;5.85;;;3.10;;
80536;SDS011;69867;47.074;15.404;2023-08-01T10:20:30;5.53;;;3.17;;
80536;SDS011;69867;47.074;15.404;2023-08-01T10:22:56;8.52;;;4.57;;
80536;SDS011;69867;47.074;15.404;2023-08-01T10:25:22;8.65;;;4.18;;
80536;SDS011;69867;47.074;15.404;2023-08-01T10:28:01;6.82;;;3.95;;
80536;SDS011;69867;47.074;15.404;2023-08-01T10:30:28;5.70;;;3.47;;
80536;SDS011;69867;47.074;15.404;2023-08-01T10:32:58;5.20;;;3.38;;
80536;SDS011;69867;47.074;15.404;2023-08-01T10:35:33;5.13;;;3.47;;
80536;SDS011;69867;47.074;15.404;2023-08-01T10:38:07;7.22;;;4.00;;
80536;SDS011;69867;47.074;15.404;2023-08-01T10:40:38;5.32;;;3.25;;
80536;SDS011;69867;47.074;15.404;2023-08-01T10:43:23;6.38;;;3.20;;
80536;SDS011;69867;47.074;15.404;2023-08-01T10:45:59;5.00;;;3.00;;
80536;SDS011;69867;47.074;15.404;2023-08-01T10:48:25;5.53;;;3.28;;
80536;SDS011;69867;47.074;15.404;2023-08-01T10:50:54;6.35;;;3.33;;
80536;SDS011;69867;47.074;15.404;2023-08-01T10:53:20;6.40;;;4.07;;
80536;SDS011;69867;47.074;15.404;2023-08-01T10:55:45;7.78;;;3.47;;
80536;SDS011;69867;47.074;15.404;2023-08-01T10:58:11;4.90;;;3.28;;
80536;SDS011;69867;47.074;15.404;2023-08-01T11:00:37;6.35;;;3.70;;
80536;SDS011;69867;47.074;15.404;2023-08-01T11:03:03;8.35;;;3.85;;
80536;SDS011;69867;47.074;15.404;2023-08-01T11:05:28;6.03;;;3.90;;
80536;SDS011;69867;47.074;15.404;2023-08-01T11:07:57;7.43;;;3.95;;
80536;SDS011;69867;47.074;15.404;2023-08-01T11:10:30;6.35;;;3.42;;
80536;SDS011;69867;47.074;15.404;2023-08-01T11:12:57;6.85;;;3.88;;
80536;SDS011;69867;47.074;15.404;2023-08-01T11:15:23;7.38;;;4.45;;
80536;SDS011;69867;47.074;15.404;2023-08-01T11:17:49;16.30;;;7.82;;
80536;SDS011;69867;47.074;15.404;2023-08-01T11:20:16;6.68;;;4.10;;
80536;SDS011;69867;47.074;15.404;2023-08-01T11:22:56;9.25;;;4.88;;
80536;SDS011;69867;47.074;15.404;2023-08-01T11:25:38;7.80;;;4.35;;
80536;SDS011;69867;47.074;15.404;2023-08-01T11:28:05;6.93;;;4.00;;
80536;SDS011;69867;47.074;15.404;2023-08-01T11:30:34;5.13;;;3.70;;
80536;SDS011;69867;47.074;15.404;2023-08-01T11:33:01;5.97;;;3.85;;
80536;SDS011;69867;47.074;15.404;2023-08-01T11:35:27;7.03;;;4.57;;
80536;SDS011;69867;47.074;15.404;2023-08-01T11:37:53;8.05;;;4.32;;
80536;SDS011;69867;47.074;15.404;2023-08-01T11:40:18;6.00;;;4.57;;
80536;SDS011;69867;47.074;15.404;2023-08-01T11:42:48;6.20;;;4.30;;
80536;SDS011;69867;47.074;15.404;2023-08-01T11:45:14;7.30;;;4.78;;
80536;SDS011;69867;47.074;15.404;2023-08-01T11:47:46;7.20;;;4.25;;
80536;SDS011;69867;47.074;15.404;2023-08-01T11:50:12;7.00;;;4.40;;
80536;SDS011;69867;47.074;15.404;2023-08-01T11:52:37;6.75;;;4.18;;
80536;SDS011;69867;47.074;15.404;2023-08-01T11:55:03;8.15;;;4.30;;
80536;SDS011;69867;47.074;15.404;2023-08-01T11:57:28;6.40;;;4.30;;
80536;SDS011;69867;47.074;15.404;2023-08-01T11:59:54;7.03;;;4.40;;
80536;SDS011;69867;47.074;15.404;2023-08-01T12:02:24;5.82;;;3.85;;
80536;SDS011;69867;47.074;15.404;2023-08-01T12:04:50;7.28;;;4.80;;
80536;SDS011;69867;47.074;15.404;2023-08-01T12:07:16;7.25;;;4.70;;
80536;SDS011;69867;47.074;15.404;2023-08-01T12:09:42;7.03;;;4.28;;
80536;SDS011;69867;47.074;15.404;2023-08-01T12:12:08;6.32;;;3.92;;
80536;SDS011;69867;47.074;15.404;2023-08-01T12:14:39;7.03;;;4.43;;
80536;SDS011;69867;47.074;15.404;2023-08-01T12:17:05;6.88;;;4.53;;
80536;SDS011;69867;47.074;15.404;2023-08-01T12:19:30;6.18;;;4.28;;
80536;SDS011;69867;47.074;15.404;2023-08-01T12:21:56;8.15;;;5.05;;
80536;SDS011;69867;47.074;15.404;2023-08-01T12:24:21;6.55;;;4.45;;
80536;SDS011;69867;47.074;15.404;2023-08-01T12:26:46;6.95;;;4.57;;
80536;SDS011;69867;47.074;15.404;2023-08-01T12:29:12;7.20;;;5.05;;
80536;SDS011;69867;47.074;15.404;2023-08-01T12:31:37;6.05;;;4.70;;
80536;SDS011;69867;47.074;15.404;2023-08-01T12:34:02;7.78;;;4.95;;
80536;SDS011;69867;47.074;15.404;2023-08-01T12:36:28;9.52;;;5.18;;
80536;SDS011;69867;47.074;15.404;2023-08-01T12:38:53;8.45;;;4.82;;
80536;SDS011;69867;47.074;15.404;2023-08-01T12:41:18;8.77;;;5.07;;
80536;SDS011;69867;47.074;15.404;2023-08-01T12:43:44;9.35;;;3.88;;
80536;SDS011;69867;47.074;15.404;2023-08-01T12:46:09;6.95;;;2.65;;
80536;SDS011;69867;47.074;15.404;2023-08-01T12:48:34;7.93;;;2.30;;
80536;SDS011;69867;47.074;15.404;2023-08-01T12:51:00;2.83;;;1.02;;
80536;SDS011;69867;47.074;15.404;2023-08-01T12:53:25;3.63;;;1.30;;
80536;SDS011;69867;47.074;15.404;2023-08-01T12:55:51;2.40;;;1.10;;
80536;SDS011;69867;47.074;15.404;2023-08-01T12:58:16;2.75;;;0.85;;
80536;SDS011;69867;47.074;15.404;2023-08-01T13:00:43;4.47;;;0.70;;
80536;SDS011;69867;47.074;15.404;2023-08-01T13:03:09;4.63;;;1.38;;
80536;SDS011;69867;47.074;15.404;2023-08-01T13:05:35;2.55;;;0.77;;
80536;SDS011;69867;47.074;15.404;2023-08-01T13:08:01;2.83;;;0.80;;
80536;SDS011;69867;47.074;15.404;2023-08-01T13:10:29;3.60;;;0.80;;
80536;SDS011;69867;47.074;15.404;2023-08-01T13:12:55;2.17;;;0.50;;
80536;SDS011;69867;47.074;15.404;2023-08-01T13:15:20;3.75;;;0.68;;
80536;SDS011;69867;47.074;15.404;2023-08-01T13:17:46;3.08;;;0.80;;
80536;SDS011;69867;47.074;15.404;2023-08-01T13:20:11;4.22;;;0.70;;
80536;SDS011;69867;47.074;15.404;2023-08-01T13:22:36;3.60;;;1.30;;
80536;SDS011;69867;47.074;15.404;2023-08-01T13:25:02;3.10;;;0.88;;
80536;SDS011;69867;47.074;15.404;2023-08-01T13:27:27;2.05;;;0.82;;
80536;SDS011;69867;47.074;15.404;2023-08-01T13:29:53;3.67;;;0.90;;
80536;SDS011;69867;47.074;15.404;2023-08-01T13:32:18;4.20;;;1.08;;
80536;SDS011;69867;47.074;15.404;2023-08-01T13:34:43;3.60;;;1.10;;
80536;SDS011;69867;47.074;15.404;2023-08-01T13:37:09;4.22;;;1.42;;
80536;SDS011;69867;47.074;15.404;2023-08-01T13:39:34;2.95;;;1.10;;
80536;SDS011;69867;47.074;15.404;2023-08-01T13:42:00;4.68;;;1.40;;
80536;SDS011;69867;47.074;15.404;2023-08-01T13:44:25;3.25;;;1.00;;
80536;SDS011;69867;47.074;15.404;2023-08-01T13:46:51;3.30;;;1.10;;
80536;SDS011;69867;47.074;15.404;2023-08-01T13:49:16;4.53;;;0.93;;
80536;SDS011;69867;47.074;15.404;2023-08-01T13:51:41;3.22;;;1.17;;
80536;SDS011;69867;47.074;15.404;2023-08-01T13:54:06;2.50;;;1.00;;
80536;SDS011;69867;47.074;15.404;2023-08-01T13:56:32;3.47;;;1.15;;
80536;SDS011;69867;47.074;15.404;2023-08-01T13:58:57;2.42;;;0.90;;
80536;SDS011;69867;47.074;15.404;2023-08-01T14:01:22;3.15;;;1.52;;
80536;SDS011;69867;47.074;15.404;2023-08-01T14:03:48;3.10;;;1.10;;
80536;SDS011;69867;47.074;15.404;2023-08-01T14:06:13;1.77;;;0.68;;
80536;SDS011;69867;47.074;15.404;2023-08-01T14:08:39;3.20;;;1.05;;
80536;SDS011;69867;47.074;15.404;2023-08-01T14:11:06;3.40;;;1.02;;
80536;SDS011;69867;47.074;15.404;2023-08-01T14:13:33;2.92;;;1.10;;
80536;SDS011;69867;47.074;15.404;2023-08-01T14:16:00;2.28;;;1.00;;
80536;SDS011;69867;47.074;15.404;2023-08-01T14:18:26;3.75;;;1.02;;
80536;SDS011;69867;47.074;15.404;2023-08-01T14:20:51;2.75;;;1.02;;
80536;SDS011;69867;47.074;15.404;2023-08-01T14:23:16;2.67;;;1.15;;
80536;SDS011;69867;47.074;15.404;2023-08-01T14:25:42;2.50;;;1.05;;
80536;SDS011;69867;47.074;15.404;2023-08-01T14:28:07;2.72;;;1.15;;